createdAt,value
2022-11-14T00:01:10.935Z,20.48
2022-11-14T00:03:37.589Z,18.35
2022-11-14T00:06:08.011Z,18.63
2022-11-14T00:08:35.454Z,17.67
2022-11-14T00:11:02.145Z,19.17
2022-11-14T00:13:28.919Z,18.88
2022-11-14T00:15:55.680Z,19.80
2022-11-14T00:18:22.840Z,17.63
2022-11-14T00:20:50.951Z,19.52
2022-11-14T00:23:18.792Z,19.55
2022-11-14T00:25:46.187Z,16.98
2022-11-14T00:28:13.386Z,17.42
2022-11-14T00:30:40.290Z,17.38
2022-11-14T00:33:07.162Z,19.38
2022-11-14T00:35:33.820Z,17.48
2022-11-14T00:38:00.593Z,17.23
2022-11-14T00:40:27.349Z,19.98
2022-11-14T00:42:54.840Z,17.75
2022-11-14T00:45:21.936Z,16.95
2022-11-14T00:47:48.854Z,17.20
2022-11-14T00:50:16.821Z,19.10
2022-11-14T00:52:43.642Z,17.80
2022-11-14T00:55:10.359Z,19.80
2022-11-14T00:57:37.239Z,18.48
2022-11-14T01:00:05.479Z,17.98
2022-11-14T01:02:32.179Z,19.00
2022-11-14T01:04:59.003Z,18.58
2022-11-14T01:07:25.659Z,15.65
2022-11-14T01:09:52.324Z,19.23
2022-11-14T01:12:19.086Z,20.52
2022-11-14T01:14:45.784Z,20.20
2022-11-14T01:17:12.572Z,18.92
2022-11-14T01:19:39.398Z,15.50
2022-11-14T01:22:06.762Z,18.95
2022-11-14T01:24:34.385Z,18.15
2022-11-14T01:27:01.497Z,16.92
2022-11-14T01:29:30.197Z,15.77
2022-11-14T01:31:56.993Z,18.90
2022-11-14T01:34:24.014Z,15.85
2022-11-14T01:36:50.898Z,18.02
2022-11-14T01:39:17.860Z,17.15
2022-11-14T01:41:44.683Z,18.33
2022-11-14T01:44:17.415Z,17.73
2022-11-14T01:46:48.174Z,17.70
2022-11-14T01:49:22.689Z,17.63
2022-11-14T01:52:12.238Z,20.02
2022-11-14T01:54:43.338Z,17.70
2022-11-14T01:57:12.400Z,20.20
2022-11-14T01:59:42.446Z,16.70
2022-11-14T02:02:15.305Z,18.52
2022-11-14T02:04:46.973Z,18.85
2022-11-14T02:07:14.759Z,19.33
2022-11-14T02:09:45.914Z,19.13
2022-11-14T02:12:15.317Z,17.88
2022-11-14T02:14:45.346Z,18.17
2022-11-14T02:17:30.212Z,18.65
2022-11-14T02:20:10.059Z,17.58
2022-11-14T02:22:38.092Z,22.33
2022-11-14T02:25:05.751Z,20.98
2022-11-14T02:27:33.904Z,18.63
2022-11-14T02:30:13.878Z,19.83
2022-11-14T02:32:57.375Z,19.80
2022-11-14T02:35:27.607Z,19.30
2022-11-14T02:37:54.275Z,19.98
2022-11-14T02:40:21.101Z,21.13
2022-11-14T02:42:47.784Z,19.33
2022-11-14T02:45:14.633Z,16.38
2022-11-14T02:47:41.370Z,17.92
2022-11-14T02:50:08.456Z,18.48
2022-11-14T02:52:35.042Z,21.63
2022-11-14T02:55:01.800Z,19.02
2022-11-14T02:57:28.521Z,19.60
2022-11-14T02:59:55.258Z,20.00
2022-11-14T03:02:22.097Z,19.98
2022-11-14T03:04:48.843Z,22.08
2022-11-14T03:07:15.691Z,20.17
2022-11-14T03:09:42.400Z,19.75
2022-11-14T03:12:09.841Z,19.05
2022-11-14T03:14:39.475Z,22.05
2022-11-14T03:17:06.109Z,22.13
2022-11-14T03:19:32.774Z,20.23
2022-11-14T03:21:59.470Z,21.38
2022-11-14T03:24:26.288Z,19.30
2022-11-14T03:26:53.031Z,22.17
2022-11-14T03:29:19.732Z,23.15
2022-11-14T03:31:46.434Z,23.92
2022-11-14T03:34:13.289Z,23.42
2022-11-14T03:36:39.944Z,21.27
2022-11-14T03:39:06.964Z,24.05
2022-11-14T03:41:33.714Z,27.00
2022-11-14T03:44:00.602Z,27.38
2022-11-14T03:46:27.564Z,28.60
2022-11-14T03:48:54.912Z,26.70
2022-11-14T03:51:21.825Z,29.42
2022-11-14T03:53:48.435Z,28.63
2022-11-14T03:56:15.148Z,32.17
2022-11-14T03:58:41.893Z,35.53
2022-11-14T04:01:08.819Z,31.63
2022-11-14T04:03:35.564Z,32.45
2022-11-14T04:06:03.134Z,37.10
2022-11-14T04:08:30.343Z,31.95
2022-11-14T04:10:57.244Z,31.85
2022-11-14T04:13:23.965Z,35.47
2022-11-14T04:15:58.539Z,33.83
2022-11-14T04:18:26.479Z,36.28
2022-11-14T04:20:53.705Z,39.58
2022-11-14T04:23:20.403Z,36.03
2022-11-14T04:25:47.140Z,39.25
2022-11-14T04:28:14.257Z,36.60
2022-11-14T04:30:41.212Z,38.20
2022-11-14T04:33:08.110Z,35.45
2022-11-14T04:35:34.773Z,38.67
2022-11-14T04:38:01.675Z,38.97
2022-11-14T04:40:28.285Z,38.80
2022-11-14T04:42:55.118Z,40.42
2022-11-14T04:45:21.855Z,42.60
2022-11-14T04:47:48.623Z,44.40
2022-11-14T04:50:15.326Z,45.05
2022-11-14T04:52:42.031Z,47.15
2022-11-14T04:55:09.048Z,46.83
2022-11-14T04:57:35.941Z,46.95
2022-11-14T05:00:04.211Z,44.13
2022-11-14T05:02:32.293Z,47.65
2022-11-14T05:04:59.104Z,49.75
2022-11-14T05:07:25.928Z,51.35
2022-11-14T05:09:52.710Z,53.80
2022-11-14T05:12:19.399Z,48.20
2022-11-14T05:14:46.127Z,52.95
2022-11-14T05:17:12.827Z,53.55
2022-11-14T05:19:39.465Z,52.20
2022-11-14T05:22:06.114Z,56.88
2022-11-14T05:24:32.813Z,53.40
2022-11-14T05:26:59.564Z,58.25
2022-11-14T05:29:26.228Z,63.35
2022-11-14T05:31:52.838Z,54.75
2022-11-14T05:34:19.489Z,54.55
2022-11-14T05:36:46.122Z,59.38
2022-11-14T05:39:12.832Z,59.22
2022-11-14T05:41:39.490Z,61.80
2022-11-14T05:44:06.538Z,63.90
2022-11-14T05:46:33.162Z,61.38
2022-11-14T05:49:00.320Z,60.38
2022-11-14T05:51:27.066Z,63.03
2022-11-14T05:53:54.817Z,66.47
2022-11-14T05:56:21.675Z,64.40
2022-11-14T05:58:48.416Z,69.05
2022-11-14T06:01:17.903Z,65.28
2022-11-14T06:03:46.864Z,65.53
2022-11-14T06:06:20.300Z,62.13
2022-11-14T06:08:47.617Z,62.60
2022-11-14T06:11:17.133Z,70.47
2022-11-14T06:13:44.167Z,64.03
2022-11-14T06:16:13.636Z,71.68
2022-11-14T06:18:40.690Z,64.47
2022-11-14T06:21:12.100Z,65.88
2022-11-14T06:23:39.051Z,73.55
2022-11-14T06:26:08.300Z,62.42
2022-11-14T06:28:35.068Z,64.45
2022-11-14T06:31:04.189Z,70.30
2022-11-14T06:33:35.396Z,69.25
2022-11-14T06:36:04.773Z,69.80
2022-11-14T06:38:33.125Z,72.20
2022-11-14T06:41:04.029Z,71.22
2022-11-14T06:43:36.474Z,70.75
2022-11-14T06:46:04.517Z,65.68
2022-11-14T06:48:31.849Z,72.03
2022-11-14T06:51:00.116Z,69.38
2022-11-14T06:53:29.500Z,67.22
2022-11-14T06:56:05.469Z,72.47
2022-11-14T06:58:34.308Z,68.80
2022-11-14T07:01:11.279Z,67.80
2022-11-14T07:03:38.062Z,66.50
2022-11-14T07:06:06.462Z,66.70
2022-11-14T07:08:33.856Z,71.57
2022-11-14T07:11:05.723Z,72.20
2022-11-14T07:13:33.535Z,75.30
2022-11-14T07:16:00.484Z,69.10
2022-11-14T07:18:31.416Z,69.10
2022-11-14T07:21:00.194Z,72.35
2022-11-14T07:23:27.321Z,69.50
2022-11-14T07:25:54.104Z,69.43
2022-11-14T07:28:20.820Z,70.00
2022-11-14T07:30:47.657Z,66.75
2022-11-14T07:33:14.407Z,68.03
2022-11-14T07:35:42.011Z,72.07
2022-11-14T07:38:08.710Z,71.68
2022-11-14T07:40:35.438Z,61.40
2022-11-14T07:43:02.788Z,67.78
2022-11-14T07:45:30.144Z,64.47
2022-11-14T07:47:59.020Z,65.88
2022-11-14T07:50:26.902Z,74.20
2022-11-14T07:52:55.848Z,68.53
2022-11-14T07:55:22.512Z,72.38
2022-11-14T07:57:53.215Z,69.50
2022-11-14T08:00:19.974Z,68.22
2022-11-14T08:02:47.549Z,66.53
2022-11-14T08:05:14.224Z,70.95
2022-11-14T08:07:41.083Z,62.55
2022-11-14T08:10:08.897Z,70.80
2022-11-14T08:12:35.682Z,66.28
2022-11-14T08:15:02.394Z,69.32
2022-11-14T08:17:29.090Z,63.45
2022-11-14T08:19:55.743Z,66.45
2022-11-14T08:22:22.542Z,64.68
2022-11-14T08:24:49.188Z,66.22
2022-11-14T08:27:16.092Z,59.78
2022-11-14T08:29:42.829Z,61.85
2022-11-14T08:32:10.719Z,65.82
2022-11-14T08:34:37.436Z,63.40
2022-11-14T08:37:04.186Z,58.83
2022-11-14T08:39:30.915Z,57.88
2022-11-14T08:41:57.667Z,63.25
2022-11-14T08:44:24.302Z,62.83
2022-11-14T08:46:51.269Z,64.35
2022-11-14T08:49:17.928Z,66.90
2022-11-14T08:51:44.803Z,64.35
2022-11-14T08:54:11.559Z,59.85
2022-11-14T08:56:38.335Z,62.47
2022-11-14T08:59:05.570Z,64.18
2022-11-14T09:01:32.807Z,58.85
2022-11-14T09:04:00.901Z,62.00
2022-11-14T09:06:28.044Z,63.88
2022-11-14T09:08:55.150Z,70.47
2022-11-14T09:11:21.967Z,66.15
2022-11-14T09:13:48.607Z,62.72
2022-11-14T09:16:15.273Z,59.97
2022-11-14T09:18:42.042Z,65.05
2022-11-14T09:21:09.232Z,57.88
2022-11-14T09:23:36.245Z,65.40
2022-11-14T09:26:07.823Z,67.32
2022-11-14T09:28:35.419Z,64.65
2022-11-14T09:31:10.182Z,65.18
2022-11-14T09:33:37.137Z,65.25
2022-11-14T09:36:07.027Z,61.13
2022-11-14T09:38:38.465Z,62.63
2022-11-14T09:43:44.518Z,65.90
2022-11-14T09:46:27.477Z,60.33
2022-11-14T09:48:54.342Z,65.60
2022-11-14T09:51:32.700Z,61.03
2022-11-14T09:54:11.857Z,58.33
2022-11-14T09:56:38.679Z,65.30
2022-11-14T09:59:11.069Z,68.07
2022-11-14T10:02:07.311Z,61.88
2022-11-14T10:04:40.084Z,59.58
2022-11-14T10:07:31.893Z,59.70
2022-11-14T10:10:13.694Z,56.83
2022-11-14T10:13:07.208Z,57.17
2022-11-14T10:15:43.103Z,56.50
2022-11-14T10:18:43.892Z,56.88
2022-11-14T10:21:20.326Z,63.17
2022-11-14T10:23:56.120Z,56.47
2022-11-14T10:26:28.289Z,59.08
2022-11-14T10:29:19.989Z,61.03
2022-11-14T10:32:14.840Z,56.95
2022-11-14T10:35:02.424Z,61.72
2022-11-14T10:37:41.940Z,59.45
2022-11-14T10:40:22.496Z,57.25
2022-11-14T10:42:54.492Z,56.00
2022-11-14T10:45:29.402Z,56.17
2022-11-14T10:48:00.216Z,53.28
2022-11-14T10:50:49.967Z,55.95
2022-11-14T10:53:41.583Z,54.97
2022-11-14T10:56:11.784Z,54.40
2022-11-14T10:58:48.328Z,51.97
2022-11-14T11:01:34.842Z,52.25
2022-11-14T11:04:13.645Z,50.63
2022-11-14T11:06:40.684Z,53.13
2022-11-14T11:09:27.976Z,50.35
2022-11-14T11:11:58.663Z,49.28
2022-11-14T11:14:25.794Z,49.40
2022-11-14T11:17:10.909Z,47.10
2022-11-14T11:19:39.166Z,44.25
2022-11-14T11:22:25.398Z,44.17
2022-11-14T11:24:52.058Z,45.17
2022-11-14T11:27:28.495Z,47.65
2022-11-14T11:30:15.822Z,47.97
2022-11-14T11:32:42.611Z,44.38
2022-11-14T11:35:14.818Z,43.35
2022-11-14T11:38:00.100Z,45.70
2022-11-14T11:40:28.971Z,45.95
2022-11-14T11:43:38.337Z,45.65
2022-11-14T11:45:54.761Z,50.88
2022-11-14T11:48:23.296Z,44.63
2022-11-14T11:50:50.447Z,49.03
2022-11-14T11:53:23.347Z,47.72
2022-11-14T11:55:54.777Z,47.25
2022-11-14T11:58:26.449Z,63.92
2022-11-14T12:03:25.422Z,62.95
2022-11-14T12:06:14.264Z,48.33
2022-11-14T12:08:49.900Z,50.33
2022-11-14T12:11:23.983Z,50.75
2022-11-14T12:13:56.627Z,51.67
2022-11-14T12:16:45.252Z,46.58
2022-11-14T12:19:41.606Z,47.85
2022-11-14T12:22:24.555Z,49.25
2022-11-14T12:24:51.181Z,48.78
2022-11-14T12:27:42.402Z,47.35
2022-11-14T12:30:24.161Z,49.38
2022-11-14T12:32:57.441Z,48.15
2022-11-14T12:35:30.675Z,45.63
2022-11-14T12:37:59.697Z,48.60
2022-11-14T12:40:33.361Z,45.80
2022-11-14T12:43:01.949Z,48.13
2022-11-14T12:45:41.123Z,52.03
2022-11-14T12:48:28.920Z,53.38
2022-11-14T12:50:57.497Z,49.25
2022-11-14T12:53:35.730Z,45.47
2022-11-14T12:56:17.629Z,50.20
2022-11-14T12:59:06.013Z,53.63
2022-11-14T13:01:54.523Z,48.38
2022-11-14T13:04:43.000Z,47.72
2022-11-14T13:07:46.854Z,51.15
2022-11-14T13:10:27.831Z,48.22
2022-11-14T13:13:26.457Z,51.97
2022-11-14T13:16:16.731Z,49.67
2022-11-14T13:19:10.142Z,51.47
2022-11-14T13:21:59.611Z,47.50
2022-11-14T13:24:26.313Z,54.42
2022-11-14T13:26:55.008Z,49.47
2022-11-14T13:29:40.106Z,49.88
2022-11-14T13:32:11.244Z,50.15
2022-11-14T13:34:51.177Z,48.90
2022-11-14T13:37:53.127Z,53.53
2022-11-14T13:40:34.666Z,53.50
2022-11-14T13:43:16.829Z,45.78
2022-11-14T13:46:15.864Z,51.60
2022-11-14T13:48:59.185Z,50.70
2022-11-14T13:51:42.881Z,47.03
2022-11-14T13:54:17.622Z,46.88
2022-11-14T13:56:45.159Z,50.80
2022-11-14T13:59:30.774Z,47.78
2022-11-14T14:02:32.108Z,50.28
2022-11-14T14:05:21.662Z,52.63
2022-11-14T14:08:17.023Z,55.50
2022-11-14T14:11:11.709Z,54.38
2022-11-14T14:14:06.588Z,49.63
2022-11-14T14:16:55.983Z,53.42
2022-11-14T14:19:52.031Z,57.13
2022-11-14T14:22:37.523Z,57.05
2022-11-14T14:25:22.268Z,58.20
2022-11-14T14:28:08.206Z,51.22
2022-11-14T14:30:35.101Z,52.45
2022-11-14T14:33:07.954Z,55.80
2022-11-14T14:35:40.405Z,55.90
2022-11-14T14:38:22.510Z,55.75
2022-11-14T14:40:49.278Z,51.00
2022-11-14T14:43:25.554Z,51.88
2022-11-14T14:45:54.183Z,54.67
2022-11-14T14:48:28.894Z,52.75
2022-11-14T14:50:58.097Z,53.85
2022-11-14T14:53:27.580Z,53.38
2022-11-14T14:55:58.146Z,60.47
2022-11-14T14:58:33.790Z,55.08
2022-11-14T15:01:11.912Z,54.97
2022-11-14T15:04:09.215Z,53.72
2022-11-14T15:06:39.748Z,59.35
2022-11-14T15:09:11.083Z,55.22
2022-11-14T15:11:47.560Z,63.53
2022-11-14T15:14:19.306Z,57.10
2022-11-14T15:16:50.135Z,55.85
2022-11-14T15:19:20.683Z,54.47
2022-11-14T15:22:02.828Z,59.25
2022-11-14T15:24:30.623Z,60.20
2022-11-14T15:26:58.070Z,57.20
2022-11-14T15:29:27.286Z,61.22
2022-11-14T15:32:04.917Z,52.30
2022-11-14T15:34:37.466Z,59.70
2022-11-14T15:37:23.074Z,63.60
2022-11-14T15:39:50.263Z,59.50
2022-11-14T15:42:26.447Z,56.03
2022-11-14T15:44:53.182Z,55.42
2022-11-14T15:47:28.838Z,57.97
2022-11-14T15:50:22.490Z,59.17
2022-11-14T15:52:59.186Z,65.75
2022-11-14T15:55:26.063Z,58.65
2022-11-14T15:58:20.971Z,58.03
2022-11-14T16:00:47.314Z,57.65
2022-11-14T16:03:19.368Z,64.30
2022-11-14T16:05:46.330Z,58.05
2022-11-14T16:08:13.195Z,58.10
2022-11-14T16:10:40.087Z,58.95
2022-11-14T16:13:07.070Z,60.72
2022-11-14T16:15:33.725Z,60.75
2022-11-14T16:18:00.449Z,69.47
2022-11-14T16:20:29.357Z,61.50
2022-11-14T16:22:56.658Z,65.30
2022-11-14T16:25:25.193Z,62.00
2022-11-14T16:27:52.215Z,61.63
2022-11-14T16:30:20.944Z,64.05
2022-11-14T16:32:49.024Z,64.28
2022-11-14T16:35:18.379Z,65.50
2022-11-14T16:37:45.223Z,60.85
2022-11-14T16:40:21.583Z,59.65
2022-11-14T16:42:48.932Z,65.13
2022-11-14T16:45:20.555Z,63.90
2022-11-14T16:47:48.283Z,68.93
2022-11-14T16:50:15.123Z,65.40
2022-11-14T16:52:41.929Z,68.45
2022-11-14T16:55:10.421Z,62.17
2022-11-14T16:57:37.757Z,63.47
2022-11-14T17:00:10.679Z,65.80
2022-11-14T17:02:37.455Z,60.65
2022-11-14T17:05:04.645Z,64.47
2022-11-14T17:07:33.315Z,68.20
2022-11-14T17:10:00.502Z,62.97
2022-11-14T17:12:28.115Z,69.03
2022-11-14T17:14:54.803Z,65.68
2022-11-14T17:17:21.697Z,63.80
2022-11-14T17:19:48.621Z,67.50
2022-11-14T17:22:17.278Z,68.20
2022-11-14T17:24:44.451Z,66.93
2022-11-14T17:27:13.043Z,68.20
2022-11-14T17:29:39.944Z,70.00
2022-11-14T17:32:06.955Z,63.60
2022-11-14T17:34:33.704Z,67.97
2022-11-14T17:37:00.393Z,64.35
2022-11-14T17:39:27.207Z,67.65
2022-11-14T17:41:54.194Z,70.95
2022-11-14T17:44:21.139Z,67.57
2022-11-14T17:46:48.215Z,68.53
2022-11-14T17:49:14.897Z,71.03
2022-11-14T17:51:41.830Z,64.82
2022-11-14T17:54:09.003Z,65.82
2022-11-14T17:56:35.752Z,71.40
2022-11-14T17:59:03.187Z,72.05
2022-11-14T18:01:31.428Z,70.85
2022-11-14T18:04:01.747Z,70.63
2022-11-14T18:06:33.670Z,76.35
2022-11-14T18:09:04.932Z,71.20
2022-11-14T18:11:32.370Z,74.50
2022-11-14T18:13:59.138Z,78.88
2022-11-14T18:16:31.375Z,74.43
2022-11-14T18:19:06.470Z,68.80
2022-11-14T18:21:33.209Z,70.90
2022-11-14T18:24:00.460Z,72.40
2022-11-14T18:26:28.797Z,72.43
2022-11-14T18:29:00.801Z,73.28
2022-11-14T18:31:28.047Z,77.53
2022-11-14T18:33:55.127Z,76.22
2022-11-14T18:36:22.049Z,70.78
2022-11-14T18:38:48.913Z,78.07
2022-11-14T18:41:18.487Z,75.75
2022-11-14T18:43:46.726Z,76.38
2022-11-14T18:46:17.899Z,78.93
2022-11-14T18:48:46.997Z,76.10
2022-11-14T18:51:16.754Z,82.13
2022-11-14T18:53:43.447Z,78.50
2022-11-14T18:56:15.614Z,74.15
2022-11-14T18:58:43.175Z,79.45
2022-11-14T19:01:15.823Z,78.55
2022-11-14T19:03:42.894Z,73.80
2022-11-14T19:06:12.101Z,75.68
2022-11-14T19:08:39.681Z,76.47
2022-11-14T19:11:29.662Z,80.88
2022-11-14T19:14:04.913Z,74.15
2022-11-14T19:16:33.449Z,76.13
2022-11-14T19:19:00.525Z,81.63
2022-11-14T19:21:28.102Z,78.38
2022-11-14T19:23:54.917Z,77.78
2022-11-14T19:26:23.088Z,77.93
2022-11-14T19:28:49.876Z,73.95
2022-11-14T19:31:17.742Z,76.05
2022-11-14T19:33:47.819Z,74.30
2022-11-14T19:36:27.833Z,75.03
2022-11-14T19:39:04.025Z,84.18
2022-11-14T19:41:32.235Z,73.47
2022-11-14T19:44:00.096Z,80.40
2022-11-14T19:46:28.951Z,83.82
2022-11-14T19:49:00.619Z,80.57
2022-11-14T19:51:28.841Z,78.18
2022-11-14T19:53:59.189Z,79.55
2022-11-14T19:56:27.024Z,83.88
2022-11-14T19:58:56.214Z,79.90
2022-11-14T20:01:25.376Z,75.40
2022-11-14T20:03:55.055Z,77.90
2022-11-14T20:06:23.446Z,87.03
2022-11-14T20:08:51.172Z,80.22
2022-11-14T20:11:18.961Z,82.60
2022-11-14T20:13:46.301Z,76.65
2022-11-14T20:16:17.964Z,79.40
2022-11-14T20:18:46.243Z,83.93
2022-11-14T20:21:15.320Z,76.93
2022-11-14T20:23:42.370Z,79.03
2022-11-14T20:26:11.505Z,79.90
2022-11-14T20:28:39.472Z,76.45
2022-11-14T20:31:09.921Z,81.78
2022-11-14T20:33:38.475Z,82.10
2022-11-14T20:37:19.699Z,79.32
2022-11-14T20:59:55.102Z,76.60
2022-11-14T21:02:21.968Z,88.10
2022-11-14T21:04:48.788Z,82.75
2022-11-14T21:07:15.494Z,81.07
2022-11-14T21:09:42.167Z,85.90
2022-11-14T21:12:08.855Z,94.18
2022-11-14T21:14:35.576Z,83.65
2022-11-14T21:17:02.284Z,87.88
2022-11-14T21:19:31.702Z,88.55
2022-11-14T21:21:58.290Z,88.05
2022-11-14T21:24:24.967Z,89.53
2022-11-14T21:26:51.705Z,95.20
2022-11-14T21:29:18.351Z,90.22
2022-11-14T21:31:45.967Z,88.32
2022-11-14T21:34:15.423Z,82.82
2022-11-14T21:36:46.679Z,93.00
2022-11-14T21:39:15.524Z,82.57
2022-11-14T21:41:43.301Z,92.95
2022-11-14T21:44:13.164Z,91.07
2022-11-14T21:46:40.368Z,94.45
2022-11-14T21:49:07.085Z,95.13
2022-11-14T21:51:33.768Z,93.13
2022-11-14T21:54:02.819Z,93.35
2022-11-14T21:56:31.825Z,92.68
2022-11-14T21:59:15.860Z,90.22
2022-11-14T22:02:05.117Z,90.85
2022-11-14T22:04:32.303Z,89.22
2022-11-14T22:07:01.365Z,91.18
2022-11-14T22:09:28.808Z,90.13
2022-11-14T22:11:56.333Z,92.75
2022-11-14T22:14:23.387Z,95.22
2022-11-14T22:16:50.518Z,93.20
2022-11-14T22:19:18.693Z,96.00
2022-11-14T22:21:45.638Z,95.10
2022-11-14T22:24:12.344Z,97.03
2022-11-14T22:26:40.391Z,88.43
2022-11-14T22:29:08.564Z,105.15
2022-11-14T22:31:35.578Z,96.30
2022-11-14T22:34:02.310Z,94.20
2022-11-14T22:36:29.167Z,91.78
2022-11-14T22:38:57.276Z,93.50
2022-11-14T22:41:32.775Z,95.45
2022-11-14T22:44:01.956Z,94.22
2022-11-14T22:46:29.182Z,103.05
2022-11-14T22:48:56.345Z,100.30
2022-11-14T22:51:25.289Z,92.40
2022-11-14T22:53:57.166Z,95.25
2022-11-14T22:56:26.630Z,94.78
2022-11-14T22:58:53.691Z,95.90
2022-11-14T23:01:31.320Z,100.18
2022-11-14T23:04:03.847Z,97.22
2022-11-14T23:06:33.511Z,95.38
2022-11-14T23:09:01.630Z,99.05
2022-11-14T23:11:30.975Z,98.13
2022-11-14T23:13:59.711Z,99.32
2022-11-14T23:16:29.239Z,95.53
2022-11-14T23:18:57.978Z,94.20
2022-11-14T23:21:28.239Z,92.35
2022-11-14T23:23:57.093Z,90.88
2022-11-14T23:26:25.202Z,91.25
2022-11-14T23:28:52.404Z,83.43
2022-11-14T23:31:19.562Z,90.07
2022-11-14T23:33:47.870Z,89.07
2022-11-14T23:36:15.223Z,95.18
2022-11-14T23:38:42.575Z,94.50
2022-11-14T23:41:16.234Z,94.90
2022-11-14T23:43:43.066Z,94.38
2022-11-14T23:46:10.003Z,95.07
2022-11-14T23:48:36.745Z,94.75
2022-11-14T23:51:03.982Z,94.60
2022-11-14T23:53:31.018Z,91.57
2022-11-14T23:56:00.034Z,91.50
2022-11-14T23:58:28.772Z,95.13
